createdAt,value
2023-05-25T00:02:24.573Z,8.80
2023-05-25T00:04:53.056Z,7.93
2023-05-25T00:07:21.297Z,8.27
2023-05-25T00:09:49.478Z,8.60
2023-05-25T00:12:17.752Z,7.95
2023-05-25T00:14:47.620Z,7.82
2023-05-25T00:17:18.828Z,8.00
2023-05-25T00:19:47.784Z,8.57
2023-05-25T00:22:15.891Z,8.85
2023-05-25T00:24:44.126Z,7.93
2023-05-25T00:27:12.262Z,8.70
2023-05-25T00:29:40.522Z,8.30
2023-05-25T00:32:10.974Z,7.72
2023-05-25T00:34:39.201Z,7.85
2023-05-25T00:37:07.667Z,8.38
2023-05-25T00:39:36.019Z,7.60
2023-05-25T00:42:04.296Z,8.10
2023-05-25T00:44:32.476Z,8.07
2023-05-25T00:47:01.414Z,7.45
2023-05-25T00:49:34.609Z,8.38
2023-05-25T00:52:02.942Z,8.05
2023-05-25T00:54:33.435Z,7.53
2023-05-25T00:57:04.439Z,7.97
2023-05-25T00:59:41.686Z,7.88
2023-05-25T01:02:11.395Z,7.75
2023-05-25T01:04:45.202Z,7.15
2023-05-25T01:07:18.669Z,7.18
2023-05-25T01:09:47.724Z,8.13
2023-05-25T01:12:17.215Z,7.60
2023-05-25T01:14:48.212Z,7.53
2023-05-25T01:17:17.335Z,6.88
2023-05-25T01:19:54.824Z,7.88
2023-05-25T01:22:38.155Z,7.68
2023-05-25T01:25:11.117Z,7.72
2023-05-25T01:27:46.112Z,7.25
2023-05-25T01:30:17.255Z,7.70
2023-05-25T01:32:46.787Z,8.07
2023-05-25T01:35:16.516Z,8.27
2023-05-25T01:37:48.747Z,7.70
2023-05-25T01:40:17.689Z,8.15
2023-05-25T01:42:48.459Z,7.68
2023-05-25T01:45:17.357Z,7.90
2023-05-25T01:47:54.353Z,7.60
2023-05-25T01:50:27.772Z,8.50
2023-05-25T01:53:03.551Z,7.47
2023-05-25T01:55:38.990Z,8.02
2023-05-25T01:58:09.428Z,8.05
2023-05-25T02:00:39.424Z,8.52
2023-05-25T02:03:10.101Z,8.40
2023-05-25T02:05:39.058Z,8.77
2023-05-25T02:08:09.632Z,9.02
2023-05-25T02:10:37.733Z,8.38
2023-05-25T02:13:06.433Z,8.38
2023-05-25T02:15:35.481Z,8.77
2023-05-25T02:18:05.766Z,8.48
2023-05-25T02:20:34.337Z,8.75
2023-05-25T02:23:02.525Z,9.23
2023-05-25T02:25:32.348Z,8.90
2023-05-25T02:28:00.871Z,8.20
2023-05-25T02:30:29.105Z,9.95
2023-05-25T02:32:59.077Z,9.48
2023-05-25T02:35:27.214Z,9.25
2023-05-25T02:37:55.386Z,8.32
2023-05-25T02:40:23.799Z,9.13
2023-05-25T02:42:53.396Z,9.70
2023-05-25T02:45:21.603Z,9.75
2023-05-25T02:47:49.836Z,10.98
2023-05-25T02:50:18.126Z,10.98
2023-05-25T02:52:52.030Z,10.55
2023-05-25T02:55:20.593Z,10.52
2023-05-25T02:57:48.890Z,10.27
2023-05-25T03:00:34.109Z,11.18
2023-05-25T03:03:02.399Z,10.45
2023-05-25T03:05:35.305Z,11.40
2023-05-25T03:10:32.500Z,11.18
2023-05-25T03:13:00.989Z,11.88
2023-05-25T03:15:33.610Z,11.57
2023-05-25T03:18:02.123Z,11.43
2023-05-25T03:20:35.270Z,12.50
2023-05-25T03:23:03.561Z,12.45
2023-05-25T03:25:31.758Z,12.10
2023-05-25T03:28:01.271Z,12.85
2023-05-25T03:30:30.561Z,11.95
2023-05-25T03:33:00.456Z,11.65
2023-05-25T03:35:34.311Z,11.10
2023-05-25T03:38:02.693Z,11.70
2023-05-25T03:40:30.919Z,10.60
2023-05-25T03:42:59.251Z,10.55
2023-05-25T03:45:27.541Z,10.77
2023-05-25T03:47:55.776Z,10.77
2023-05-25T03:50:28.141Z,11.27
2023-05-25T03:52:56.460Z,10.10
2023-05-25T03:55:24.976Z,10.30
2023-05-25T03:57:53.149Z,9.90
2023-05-25T04:00:22.635Z,10.70
2023-05-25T04:02:51.245Z,9.98
2023-05-25T04:05:22.463Z,9.82
2023-05-25T04:07:53.558Z,10.13
2023-05-25T04:10:21.913Z,10.18
2023-05-25T04:12:50.113Z,10.02
2023-05-25T04:15:18.540Z,9.32
2023-05-25T04:18:03.501Z,9.18
2023-05-25T04:20:31.890Z,10.00
2023-05-25T04:23:03.335Z,10.00
2023-05-25T04:25:35.408Z,9.90
2023-05-25T04:28:03.575Z,9.52
2023-05-25T04:30:48.015Z,9.43
2023-05-25T04:33:29.712Z,9.93
2023-05-25T04:36:05.113Z,9.80
2023-05-25T04:38:35.938Z,9.52
2023-05-25T04:41:05.854Z,10.07
2023-05-25T04:43:34.384Z,10.43
2023-05-25T04:46:04.712Z,10.48
2023-05-25T04:48:34.177Z,10.70
2023-05-25T04:51:03.150Z,10.35
2023-05-25T04:53:32.649Z,11.00
2023-05-25T04:56:02.779Z,10.50
2023-05-25T04:58:31.027Z,10.82
2023-05-25T05:00:59.596Z,9.45
2023-05-25T05:03:27.821Z,10.23
2023-05-25T05:05:56.959Z,9.82
2023-05-25T05:08:29.375Z,9.88
2023-05-25T05:10:57.523Z,9.80
2023-05-25T05:13:28.249Z,8.63
2023-05-25T05:15:57.539Z,9.95
2023-05-25T05:18:25.978Z,8.85
2023-05-25T05:20:54.112Z,8.18
2023-05-25T05:23:22.581Z,8.90
2023-05-25T05:25:51.457Z,9.18
2023-05-25T05:28:19.703Z,8.02
2023-05-25T05:30:49.419Z,8.32
2023-05-25T05:33:17.716Z,8.32
2023-05-25T05:35:47.549Z,9.15
2023-05-25T05:38:20.218Z,8.50
2023-05-25T05:40:49.293Z,9.15
2023-05-25T05:43:22.774Z,10.85
2023-05-25T05:45:52.529Z,9.27
2023-05-25T05:48:20.788Z,9.48
2023-05-25T05:50:49.422Z,9.43
2023-05-25T05:53:17.972Z,9.57
2023-05-25T05:55:51.739Z,9.63
2023-05-25T05:58:21.253Z,10.18
2023-05-25T06:00:49.553Z,9.45
2023-05-25T06:03:19.249Z,11.85
2023-05-25T06:05:47.689Z,9.85
2023-05-25T06:08:16.187Z,8.55
2023-05-25T06:10:44.484Z,9.77
2023-05-25T06:13:12.777Z,8.80
2023-05-25T06:15:41.076Z,8.80
2023-05-25T06:18:13.430Z,8.77
2023-05-25T06:20:43.995Z,8.02
2023-05-25T06:23:14.061Z,9.38
2023-05-25T06:25:44.924Z,8.57
2023-05-25T06:28:13.867Z,8.48
2023-05-25T06:30:42.102Z,8.07
2023-05-25T06:33:10.506Z,7.68
2023-05-25T06:35:38.819Z,7.78
2023-05-25T06:38:08.616Z,8.50
2023-05-25T06:40:36.784Z,8.45
2023-05-25T06:43:05.087Z,8.32
2023-05-25T06:45:43.875Z,8.32
2023-05-25T06:48:12.646Z,7.88
2023-05-25T06:50:42.403Z,7.50
2023-05-25T06:53:11.973Z,7.45
2023-05-25T06:55:40.087Z,7.50
2023-05-25T06:58:08.413Z,7.00
2023-05-25T07:00:38.856Z,7.45
2023-05-25T07:03:07.149Z,7.55
2023-05-25T07:05:35.587Z,7.40
2023-05-25T07:08:03.849Z,7.68
2023-05-25T07:10:33.523Z,7.63
2023-05-25T07:13:01.695Z,7.82
2023-05-25T07:15:29.860Z,6.47
2023-05-25T07:17:58.752Z,7.55
2023-05-25T07:20:27.501Z,7.20
2023-05-25T07:22:55.784Z,6.57
2023-05-25T07:25:24.045Z,7.18
2023-05-25T07:27:55.066Z,6.65
2023-05-25T07:30:23.790Z,7.13
2023-05-25T07:32:52.285Z,5.80
2023-05-25T07:35:20.747Z,5.50
2023-05-25T07:37:57.765Z,5.07
2023-05-25T07:40:26.009Z,6.22
2023-05-25T07:42:56.001Z,5.60
2023-05-25T07:45:24.434Z,5.03
2023-05-25T07:47:52.698Z,5.07
2023-05-25T07:50:23.672Z,5.32
2023-05-25T07:52:52.037Z,5.40
2023-05-25T07:55:20.981Z,5.43
2023-05-25T07:57:49.088Z,5.20
2023-05-25T08:00:20.155Z,5.85
2023-05-25T08:02:48.387Z,4.95
2023-05-25T08:05:16.795Z,5.13
2023-05-25T08:07:47.172Z,4.97
2023-05-25T08:10:16.572Z,5.47
2023-05-25T08:12:49.719Z,5.60
2023-05-25T08:15:20.438Z,5.60
2023-05-25T08:17:50.786Z,5.45
2023-05-25T08:20:19.760Z,5.50
2023-05-25T08:22:48.006Z,5.82
2023-05-25T08:25:16.271Z,5.80
2023-05-25T08:27:44.419Z,5.78
2023-05-25T08:30:15.073Z,5.57
2023-05-25T08:32:45.182Z,6.07
2023-05-25T08:35:17.406Z,5.70
2023-05-25T08:37:45.630Z,5.60
2023-05-25T08:40:16.240Z,5.90
2023-05-25T08:42:45.162Z,6.15
2023-05-25T08:45:26.375Z,6.05
2023-05-25T08:48:09.304Z,5.57
2023-05-25T08:50:39.721Z,6.70
2023-05-25T08:53:12.023Z,5.70
2023-05-25T08:55:42.120Z,6.63
2023-05-25T08:58:17.978Z,6.50
2023-05-25T09:00:56.159Z,6.63
2023-05-25T09:03:26.169Z,7.63
2023-05-25T09:05:56.038Z,6.50
2023-05-25T09:08:24.584Z,5.75
2023-05-25T09:10:57.484Z,5.97
2023-05-25T09:13:25.861Z,5.97
2023-05-25T09:15:54.379Z,5.90
2023-05-25T09:18:22.580Z,5.72
2023-05-25T09:20:55.383Z,6.25
2023-05-25T09:23:24.017Z,6.82
2023-05-25T09:25:52.702Z,6.72
2023-05-25T09:30:52.839Z,5.83
2023-05-25T09:33:22.370Z,5.55
2023-05-25T09:35:51.490Z,5.40
2023-05-25T09:38:21.944Z,6.55
2023-05-25T09:40:50.660Z,6.53
2023-05-25T09:43:32.294Z,5.80
2023-05-25T09:46:07.281Z,5.65
2023-05-25T09:48:36.141Z,5.75
2023-05-25T09:51:04.448Z,5.55
2023-05-25T09:53:34.586Z,4.85
2023-05-25T09:56:04.076Z,5.90
2023-05-25T09:58:32.603Z,5.32
2023-05-25T10:01:01.290Z,6.40
2023-05-25T10:03:29.608Z,6.38
2023-05-25T10:05:58.170Z,6.00
2023-05-25T10:08:28.809Z,6.63
2023-05-25T10:10:58.837Z,6.60
2023-05-25T10:13:30.276Z,6.43
2023-05-25T10:15:59.672Z,5.90
2023-05-25T10:18:30.412Z,5.88
2023-05-25T10:21:03.582Z,5.80
2023-05-25T10:23:40.319Z,7.00
2023-05-25T10:26:11.152Z,6.32
2023-05-25T10:28:41.142Z,6.22
2023-05-25T10:31:11.946Z,5.60
2023-05-25T10:33:41.300Z,6.10
2023-05-25T10:36:13.401Z,5.68
2023-05-25T10:38:44.641Z,5.45
2023-05-25T10:41:16.972Z,5.53
2023-05-25T10:43:45.381Z,5.47
2023-05-25T10:46:15.228Z,5.78
2023-05-25T10:48:47.656Z,5.88
2023-05-25T10:51:16.206Z,6.15
2023-05-25T10:53:50.651Z,6.63
2023-05-25T10:56:20.163Z,5.95
2023-05-25T10:58:48.382Z,5.15
2023-05-25T11:01:17.238Z,6.32
2023-05-25T11:04:17.351Z,5.35
2023-05-25T11:07:14.309Z,5.57
2023-05-25T11:09:44.747Z,5.40
2023-05-25T11:12:22.621Z,5.70
2023-05-25T11:15:15.352Z,5.82
2023-05-25T11:18:02.518Z,6.47
2023-05-25T11:20:31.947Z,6.57
2023-05-25T11:23:00.265Z,6.85
2023-05-25T11:25:39.898Z,6.47
2023-05-25T11:28:11.904Z,6.28
2023-05-25T11:30:42.928Z,5.95
2023-05-25T11:33:11.372Z,6.68
2023-05-25T11:35:39.864Z,6.72
2023-05-25T11:38:09.171Z,7.25
2023-05-25T11:40:40.244Z,7.15
2023-05-25T11:43:12.686Z,7.40
2023-05-25T11:45:41.481Z,6.85
2023-05-25T11:48:15.233Z,6.60
2023-05-25T11:50:43.788Z,6.38
2023-05-25T11:53:12.321Z,6.47
2023-05-25T11:55:42.756Z,6.25
2023-05-25T11:58:12.296Z,6.57
2023-05-25T12:00:40.494Z,6.80
2023-05-25T12:03:10.464Z,6.68
2023-05-25T12:05:39.426Z,6.03
2023-05-25T12:08:10.029Z,6.38
2023-05-25T12:10:51.319Z,6.25
2023-05-25T12:13:21.528Z,6.70
2023-05-25T12:15:50.565Z,5.72
2023-05-25T12:18:18.978Z,6.03
2023-05-25T12:20:47.380Z,6.40
2023-05-25T12:23:16.355Z,6.40
2023-05-25T12:25:51.007Z,6.82
2023-05-25T12:28:21.243Z,6.93
2023-05-25T12:30:49.902Z,7.43
2023-05-25T12:33:18.257Z,7.35
2023-05-25T12:35:47.695Z,6.50
2023-05-25T12:38:18.597Z,6.72
2023-05-25T12:40:47.223Z,6.63
2023-05-25T12:43:17.468Z,8.20
2023-05-25T12:45:47.292Z,7.55
2023-05-25T12:48:16.367Z,6.75
2023-05-25T12:50:59.879Z,7.03
2023-05-25T12:53:29.083Z,7.13
2023-05-25T12:56:03.561Z,6.50
2023-05-25T12:58:31.810Z,7.00
2023-05-25T13:01:01.707Z,6.60
2023-05-25T13:03:30.828Z,7.40
2023-05-25T13:06:02.384Z,7.28
2023-05-25T13:08:31.195Z,8.33
2023-05-25T13:10:59.982Z,6.90
2023-05-25T13:13:28.262Z,7.07
2023-05-25T13:15:58.190Z,6.88
2023-05-25T13:18:27.826Z,7.72
2023-05-25T13:20:57.477Z,7.03
2023-05-25T13:23:26.089Z,7.72
2023-05-25T13:25:54.378Z,5.95
2023-05-25T13:28:22.650Z,6.88
2023-05-25T13:30:50.892Z,6.88
2023-05-25T13:33:19.016Z,6.53
2023-05-25T13:35:59.084Z,6.68
2023-05-25T13:38:27.901Z,6.22
2023-05-25T13:40:57.544Z,6.35
2023-05-25T13:43:25.893Z,6.20
2023-05-25T13:45:54.096Z,7.30
2023-05-25T13:48:22.603Z,6.60
2023-05-25T13:50:52.168Z,6.30
2023-05-25T13:53:20.338Z,6.53
2023-05-25T13:55:48.743Z,6.93
2023-05-25T13:58:16.843Z,5.78
2023-05-25T14:00:45.242Z,6.53
2023-05-25T14:03:14.074Z,6.20
2023-05-25T14:05:42.654Z,5.65
2023-05-25T14:08:12.793Z,6.20
2023-05-25T14:10:43.372Z,6.10
2023-05-25T14:13:14.029Z,5.70
2023-05-25T14:15:42.379Z,6.50
2023-05-25T14:18:10.790Z,6.55
2023-05-25T14:20:41.019Z,6.50
2023-05-25T14:23:10.709Z,6.60
2023-05-25T14:25:42.190Z,7.57
2023-05-25T14:28:10.574Z,6.07
2023-05-25T14:30:38.836Z,5.90
2023-05-25T14:33:07.129Z,6.43
2023-05-25T14:35:35.395Z,6.43
2023-05-25T14:38:03.597Z,6.15
2023-05-25T14:40:32.887Z,6.20
2023-05-25T14:43:02.454Z,6.20
2023-05-25T14:45:30.714Z,6.07
2023-05-25T14:48:08.246Z,6.78
2023-05-25T14:50:46.924Z,5.55
2023-05-25T14:53:15.079Z,6.70
2023-05-25T14:55:43.707Z,6.85
2023-05-25T14:58:16.809Z,6.33
2023-05-25T15:00:45.443Z,6.13
2023-05-25T15:03:13.643Z,7.75
2023-05-25T15:05:42.234Z,6.82
2023-05-25T15:08:12.864Z,6.75
2023-05-25T15:10:41.157Z,7.22
2023-05-25T15:13:10.338Z,6.57
2023-05-25T15:15:41.784Z,6.57
2023-05-25T15:18:10.112Z,6.80
2023-05-25T15:20:38.663Z,6.90
2023-05-25T15:23:07.016Z,8.75
2023-05-25T15:25:35.975Z,6.18
2023-05-25T15:28:04.532Z,7.22
2023-05-25T15:30:34.081Z,5.55
2023-05-25T15:33:03.866Z,6.18
2023-05-25T15:35:32.645Z,5.70
2023-05-25T15:38:01.588Z,6.28
2023-05-25T15:40:30.054Z,6.15
2023-05-25T15:42:58.373Z,5.95
2023-05-25T15:45:26.802Z,5.88
2023-05-25T15:47:55.079Z,5.45
2023-05-25T15:50:24.783Z,5.55
2023-05-25T15:52:53.041Z,5.38
2023-05-25T15:55:21.244Z,5.25
2023-05-25T15:57:49.641Z,5.18
2023-05-25T16:00:18.253Z,5.82
2023-05-25T16:02:46.681Z,6.18
2023-05-25T16:05:15.160Z,5.57
2023-05-25T16:07:44.690Z,5.40
2023-05-25T16:10:13.083Z,5.78
2023-05-25T16:12:41.201Z,5.03
2023-05-25T16:15:10.659Z,5.43
2023-05-25T16:17:41.090Z,6.20
2023-05-25T16:20:10.557Z,4.97
2023-05-25T16:22:38.740Z,5.93
2023-05-25T16:25:09.507Z,6.55
2023-05-25T16:27:37.845Z,5.50
2023-05-25T16:30:07.376Z,5.28
2023-05-25T16:32:35.579Z,5.78
2023-05-25T16:35:03.830Z,6.00
2023-05-25T16:37:32.030Z,5.65
2023-05-25T16:40:00.475Z,5.38
2023-05-25T16:42:30.112Z,5.82
2023-05-25T16:44:58.507Z,6.03
2023-05-25T16:47:27.014Z,6.05
2023-05-25T16:49:55.175Z,5.20
2023-05-25T16:52:23.433Z,5.78
2023-05-25T16:54:52.608Z,5.43
2023-05-25T16:57:20.852Z,6.10
2023-05-25T16:59:52.958Z,6.22
2023-05-25T17:02:23.117Z,6.18
2023-05-25T17:04:51.302Z,5.60
2023-05-25T17:07:19.444Z,6.13
2023-05-25T17:09:47.552Z,6.15
2023-05-25T17:12:15.769Z,5.80
2023-05-25T17:14:43.890Z,5.75
2023-05-25T17:17:13.734Z,6.25
2023-05-25T17:19:41.912Z,5.95
2023-05-25T17:22:10.551Z,5.95
2023-05-25T17:24:38.750Z,6.38
2023-05-25T17:27:07.130Z,6.10
2023-05-25T17:29:35.407Z,6.35
2023-05-25T17:32:03.678Z,6.30
2023-05-25T17:34:33.460Z,6.10
2023-05-25T17:37:01.789Z,7.15
2023-05-25T17:39:31.275Z,6.30
2023-05-25T17:41:59.465Z,6.60
2023-05-25T17:44:29.194Z,6.97
2023-05-25T17:46:57.705Z,6.57
2023-05-25T17:49:25.914Z,7.03
2023-05-25T17:51:55.885Z,6.60
2023-05-25T17:54:25.838Z,6.50
2023-05-25T17:56:54.259Z,6.78
2023-05-25T17:59:22.595Z,6.25
2023-05-25T18:01:50.952Z,6.72
2023-05-25T18:04:20.169Z,5.93
2023-05-25T18:06:49.951Z,6.45
2023-05-25T18:09:19.834Z,6.85
2023-05-25T18:11:48.524Z,6.72
2023-05-25T18:14:16.809Z,7.20
2023-05-25T18:16:45.328Z,7.03
2023-05-25T18:19:15.412Z,7.47
2023-05-25T18:21:46.067Z,6.50
2023-05-25T18:24:14.289Z,6.65
2023-05-25T18:26:43.955Z,6.55
2023-05-25T18:29:12.217Z,6.35
2023-05-25T18:31:45.637Z,6.03
2023-05-25T18:34:14.316Z,6.82
2023-05-25T18:36:42.487Z,5.97
2023-05-25T18:39:11.311Z,6.45
2023-05-25T18:41:39.708Z,6.50
2023-05-25T18:44:09.377Z,5.45
2023-05-25T18:46:39.744Z,6.18
2023-05-25T18:49:09.153Z,5.85
2023-05-25T18:51:37.484Z,8.43
2023-05-25T18:54:06.109Z,5.60
2023-05-25T18:56:34.449Z,6.30
2023-05-25T18:59:02.606Z,6.75
2023-05-25T19:01:32.090Z,5.20
2023-05-25T19:04:00.484Z,6.88
2023-05-25T19:06:28.751Z,6.18
2023-05-25T19:08:57.164Z,7.03
2023-05-25T19:11:25.999Z,6.78
2023-05-25T19:13:54.261Z,6.57
2023-05-25T19:16:22.545Z,7.57
2023-05-25T19:18:52.130Z,6.22
2023-05-25T19:21:20.668Z,6.45
2023-05-25T19:23:48.897Z,6.82
2023-05-25T19:26:21.149Z,6.47
2023-05-25T19:28:49.345Z,6.37
2023-05-25T19:31:17.717Z,6.97
2023-05-25T19:33:46.045Z,6.68
2023-05-25T19:36:15.585Z,6.00
2023-05-25T19:38:43.836Z,7.32
2023-05-25T19:41:11.971Z,7.00
2023-05-25T19:43:40.347Z,6.55
2023-05-25T19:46:08.576Z,7.10
2023-05-25T19:48:36.772Z,6.57
2023-05-25T19:51:05.000Z,6.70
2023-05-25T19:53:34.498Z,6.85
2023-05-25T19:56:03.477Z,6.22
2023-05-25T19:58:31.776Z,7.15
2023-05-25T20:01:03.189Z,7.55
2023-05-25T20:03:31.766Z,7.35
2023-05-25T20:06:00.267Z,6.97
2023-05-25T20:08:28.332Z,6.80
2023-05-25T20:10:57.825Z,7.20
2023-05-25T20:13:26.078Z,8.48
2023-05-25T20:15:54.378Z,7.50
2023-05-25T20:18:23.943Z,6.15
2023-05-25T20:20:52.221Z,5.65
2023-05-25T20:23:20.542Z,5.68
2023-05-25T20:25:49.054Z,6.38
2023-05-25T20:28:19.635Z,6.45
2023-05-25T20:30:47.859Z,7.57
2023-05-25T20:33:16.084Z,6.22
2023-05-25T20:35:46.752Z,6.35
2023-05-25T20:38:15.136Z,6.45
2023-05-25T20:40:43.261Z,5.85
2023-05-25T20:43:14.018Z,6.40
2023-05-25T20:45:43.958Z,5.30
2023-05-25T20:48:12.395Z,6.00
2023-05-25T20:50:40.764Z,7.10
2023-05-25T20:53:09.265Z,5.30
2023-05-25T20:55:37.469Z,6.45
2023-05-25T20:58:05.810Z,6.10
2023-05-25T21:00:33.909Z,6.38
2023-05-25T21:03:04.938Z,5.97
2023-05-25T21:05:34.014Z,5.95
2023-05-25T21:08:03.504Z,7.03
2023-05-25T21:10:31.715Z,6.10
2023-05-25T21:12:59.880Z,6.35
2023-05-25T21:15:28.080Z,6.07
2023-05-25T21:17:56.327Z,6.40
2023-05-25T21:20:27.080Z,6.15
2023-05-25T21:22:55.322Z,6.72
2023-05-25T21:25:23.505Z,6.18
2023-05-25T21:27:51.669Z,7.00
2023-05-25T21:30:20.875Z,6.22
2023-05-25T21:32:49.159Z,5.95
2023-05-25T21:35:18.430Z,7.15
2023-05-25T21:37:48.012Z,6.72
2023-05-25T21:40:16.242Z,5.97
2023-05-25T21:42:44.398Z,6.28
2023-05-25T21:45:12.827Z,6.43
2023-05-25T21:47:41.038Z,6.40
2023-05-25T21:50:09.688Z,5.68
2023-05-25T21:52:38.419Z,6.13
2023-05-25T21:55:09.020Z,5.85
2023-05-25T21:57:37.312Z,6.32
2023-05-25T22:00:07.785Z,5.75
2023-05-25T22:02:41.933Z,6.50
2023-05-25T22:05:10.338Z,5.90
2023-05-25T22:07:38.511Z,6.57
2023-05-25T22:10:09.617Z,6.00
2023-05-25T22:12:38.270Z,5.47
2023-05-25T22:15:07.870Z,6.43
2023-05-25T22:17:36.199Z,5.90
2023-05-25T22:20:07.881Z,5.93
2023-05-25T22:22:37.294Z,6.60
2023-05-25T22:25:07.784Z,6.18
2023-05-25T22:27:35.964Z,6.50
2023-05-25T22:30:04.300Z,7.20
2023-05-25T22:32:32.437Z,6.72
2023-05-25T22:35:01.065Z,6.60
2023-05-25T22:37:29.309Z,6.90
2023-05-25T22:39:57.457Z,6.40
2023-05-25T22:42:27.442Z,6.10
2023-05-25T22:44:55.503Z,6.93
2023-05-25T22:47:23.702Z,7.50
2023-05-25T22:49:51.852Z,6.40
2023-05-25T22:52:19.990Z,6.35
2023-05-25T22:54:48.138Z,6.78
2023-05-25T22:57:16.884Z,6.63
2023-05-25T22:59:46.524Z,6.75
2023-05-25T23:02:14.797Z,6.85
2023-05-25T23:04:42.941Z,6.93
2023-05-25T23:07:11.003Z,7.30
2023-05-25T23:09:39.077Z,7.07
2023-05-25T23:12:07.590Z,7.38
2023-05-25T23:14:36.729Z,6.78
2023-05-25T23:17:06.574Z,6.68
2023-05-25T23:19:35.644Z,7.10
2023-05-25T23:22:04.132Z,7.38
2023-05-25T23:24:35.857Z,7.03
2023-05-25T23:27:05.616Z,6.07
2023-05-25T23:29:33.940Z,7.43
2023-05-25T23:32:02.105Z,6.05
2023-05-25T23:34:33.968Z,6.65
2023-05-25T23:37:03.314Z,7.13
2023-05-25T23:39:33.176Z,7.18
2023-05-25T23:42:02.330Z,7.55
2023-05-25T23:44:30.782Z,6.93
2023-05-25T23:47:01.169Z,7.28
2023-05-25T23:49:29.300Z,7.68
2023-05-25T23:51:58.888Z,7.05
2023-05-25T23:54:27.058Z,6.75
2023-05-25T23:56:55.158Z,7.47
2023-05-25T23:59:23.215Z,6.80
